createdAt,value
2019-05-10T00:02:46.192Z,73.31
2019-05-10T00:08:07.252Z,72.82
2019-05-10T00:13:12.352Z,73.16
2019-05-10T00:18:15.712Z,72.84
2019-05-10T00:23:19.054Z,73.18
2019-05-10T00:28:22.378Z,72.99
2019-05-10T00:33:25.733Z,73.20
2019-05-10T00:38:29.101Z,73.17
2019-05-10T00:43:32.473Z,72.92
2019-05-10T00:48:35.952Z,72.71
2019-05-10T00:53:39.296Z,72.70
2019-05-10T00:58:42.635Z,72.79
2019-05-10T01:03:46.022Z,72.47
2019-05-10T01:08:49.488Z,72.70
2019-05-10T01:13:52.835Z,72.78
2019-05-10T01:18:56.184Z,73.15
2019-05-10T01:23:59.528Z,72.95
2019-05-10T01:29:02.907Z,73.03
2019-05-10T01:34:06.248Z,73.27
2019-05-10T01:39:09.597Z,73.51
2019-05-10T01:44:12.935Z,73.60
2019-05-10T01:49:16.372Z,73.48
2019-05-10T01:54:19.708Z,72.83
2019-05-10T01:59:23.066Z,72.71
2019-05-10T02:04:26.437Z,72.80
2019-05-10T02:09:33.092Z,72.33
2019-05-10T02:14:34.862Z,72.33
2019-05-10T02:19:38.208Z,71.92
2019-05-10T02:24:41.572Z,71.21
2019-05-10T02:29:44.989Z,71.45
2019-05-10T02:34:48.322Z,71.06
2019-05-10T02:39:51.981Z,70.71
2019-05-10T02:44:55.280Z,71.03
2019-05-10T02:49:59.406Z,71.51
2019-05-10T02:55:03.293Z,71.51
2019-05-10T03:00:07.512Z,71.27
2019-05-10T03:05:10.941Z,71.53
2019-05-10T03:10:14.458Z,70.97
2019-05-10T03:15:17.984Z,71.10
2019-05-10T03:20:22.686Z,71.97
2019-05-10T03:25:26.130Z,74.15
2019-05-10T03:30:30.832Z,76.32
2019-05-10T03:35:34.389Z,76.65
2019-05-10T03:40:37.805Z,76.45
2019-05-10T03:45:41.195Z,76.78
2019-05-10T03:50:45.266Z,77.34
2019-05-10T03:55:48.609Z,76.56
2019-05-10T04:00:51.974Z,77.28
2019-05-10T04:05:55.529Z,77.43
2019-05-10T04:10:58.946Z,77.53
2019-05-10T04:16:02.491Z,77.93
2019-05-10T04:21:05.825Z,78.45
2019-05-10T04:26:09.170Z,78.81
2019-05-10T04:31:12.509Z,78.87
2019-05-10T04:36:15.894Z,78.64
2019-05-10T04:41:19.230Z,79.03
2019-05-10T04:46:22.626Z,78.76
2019-05-10T04:51:26.055Z,78.87
2019-05-10T04:56:29.485Z,78.67
2019-05-10T05:01:32.865Z,77.44
2019-05-10T05:06:36.196Z,77.41
2019-05-10T05:11:39.599Z,76.69
2019-05-10T05:16:42.947Z,77.29
2019-05-10T05:21:46.384Z,77.14
2019-05-10T05:26:49.722Z,77.58
2019-05-10T05:31:54.064Z,77.11
2019-05-10T05:36:58.518Z,77.18
2019-05-10T05:42:01.899Z,76.55
2019-05-10T05:47:05.259Z,77.13
2019-05-10T05:52:08.695Z,76.57
2019-05-10T05:57:12.065Z,75.67
2019-05-10T06:02:15.399Z,75.59
2019-05-10T06:07:18.854Z,74.42
2019-05-10T06:12:22.207Z,73.85
2019-05-10T06:17:29.362Z,72.99
2019-05-10T06:22:30.806Z,73.12
2019-05-10T06:27:35.315Z,72.83
2019-05-10T06:32:39.470Z,72.81
2019-05-10T06:37:42.918Z,72.92
2019-05-10T06:42:46.340Z,72.64
2019-05-10T06:53:10.507Z,71.26
2019-05-10T06:58:11.987Z,70.26
2019-05-10T07:03:15.257Z,69.50
2019-05-10T07:08:20.493Z,68.06
2019-05-10T07:13:23.604Z,67.23
2019-05-10T07:18:26.964Z,66.05
2019-05-10T07:23:30.400Z,66.48
2019-05-10T07:28:33.629Z,66.63
2019-05-10T07:33:40.012Z,66.30
2019-05-10T07:38:42.251Z,64.52
2019-05-10T07:43:48.018Z,62.72
2019-05-10T07:48:53.359Z,63.23
2019-05-10T07:53:56.905Z,62.70
2019-05-10T07:59:00.883Z,63.71
2019-05-10T08:04:04.214Z,63.11
2019-05-10T08:09:09.629Z,61.15
2019-05-10T08:14:13.181Z,60.42
2019-05-10T08:19:16.477Z,58.18
2019-05-10T08:24:22.045Z,58.27
2019-05-10T08:29:24.793Z,57.62
2019-05-10T08:34:28.970Z,53.53
2019-05-10T08:39:43.937Z,53.06
2019-05-10T08:44:38.132Z,50.84
2019-05-10T08:49:55.331Z,49.54
2019-05-10T08:54:46.843Z,48.83
2019-05-10T08:59:54.245Z,47.71
2019-05-10T09:04:55.162Z,49.59
2019-05-10T09:09:58.455Z,47.47
2019-05-10T09:15:06.330Z,47.54
2019-05-10T09:20:14.044Z,46.07
2019-05-10T09:25:13.935Z,46.28
2019-05-10T09:30:21.992Z,46.63
2019-05-10T09:35:25.298Z,48.53
2019-05-10T09:40:28.664Z,48.96
2019-05-10T09:45:32.590Z,49.63
2019-05-10T09:50:42.078Z,49.30
2019-05-10T09:55:45.698Z,45.34
2019-05-10T10:00:48.341Z,45.34
2019-05-10T10:05:55.350Z,43.85
2019-05-10T10:11:01.278Z,42.09
2019-05-10T10:16:04.017Z,42.31
2019-05-10T10:21:06.126Z,42.75
2019-05-10T10:26:12.757Z,43.19
2019-05-10T10:31:26.229Z,44.10
2019-05-10T10:36:19.495Z,43.88
2019-05-10T10:41:31.190Z,44.46
2019-05-10T10:46:28.150Z,45.13
2019-05-10T10:51:34.063Z,40.61
2019-05-10T10:56:37.406Z,39.95
2019-05-10T11:01:49.433Z,40.05
2019-05-10T11:06:45.946Z,39.34
2019-05-10T11:11:51.569Z,40.95
2019-05-10T11:16:57.051Z,41.04
2019-05-10T11:22:04.386Z,40.84
2019-05-10T11:27:07.306Z,40.61
2019-05-10T11:32:15.791Z,40.33
2019-05-10T11:37:15.982Z,40.59
2019-05-10T11:42:21.195Z,38.80
2019-05-10T11:47:27.029Z,38.63
2019-05-10T11:52:34.879Z,38.62
2019-05-10T11:57:34.460Z,39.30
2019-05-10T12:02:45.901Z,38.81
2019-05-10T12:07:46.023Z,39.62
2019-05-10T12:13:01.654Z,39.80
2019-05-10T12:17:58.980Z,40.46
2019-05-10T12:22:57.857Z,39.72
2019-05-10T12:28:01.357Z,39.41
2019-05-10T12:33:09.238Z,39.26
2019-05-10T12:38:11.296Z,37.31
2019-05-10T12:43:14.628Z,39.59
2019-05-10T12:48:17.904Z,38.88
2019-05-10T12:53:21.543Z,39.32
2019-05-10T12:58:24.901Z,38.63
2019-05-10T13:03:31.760Z,37.94
2019-05-10T13:08:33.222Z,39.21
2019-05-10T13:13:36.525Z,39.09
2019-05-10T13:18:50.844Z,38.69
2019-05-10T13:23:44.905Z,38.81
2019-05-10T13:28:48.237Z,38.53
2019-05-10T13:33:51.603Z,39.30
2019-05-10T13:38:54.887Z,39.44
2019-05-10T13:44:04.935Z,39.16
2019-05-10T13:49:03.220Z,38.57
2019-05-10T13:54:06.527Z,36.98
2019-05-10T13:59:18.017Z,39.14
2019-05-10T14:04:14.865Z,39.45
2019-05-10T14:09:20.964Z,37.12
2019-05-10T14:14:26.640Z,38.72
2019-05-10T14:19:28.286Z,36.30
2019-05-10T14:24:31.592Z,35.91
2019-05-10T14:29:36.867Z,37.34
2019-05-10T14:34:44.081Z,37.95
2019-05-10T14:39:44.933Z,38.25
2019-05-10T14:44:48.233Z,38.19
2019-05-10T14:49:51.529Z,37.67
2019-05-10T14:54:56.741Z,39.56
2019-05-10T14:59:59.837Z,39.73
2019-05-10T15:05:08.690Z,40.48
2019-05-10T15:10:08.943Z,40.75
2019-05-10T15:15:12.249Z,40.58
2019-05-10T15:20:15.612Z,41.32
2019-05-10T15:25:18.919Z,40.80
2019-05-10T15:30:22.382Z,39.87
2019-05-10T15:35:25.687Z,37.91
2019-05-10T15:40:28.971Z,39.21
2019-05-10T15:45:32.281Z,39.71
2019-05-10T15:50:38.563Z,39.83
2019-05-10T15:55:40.602Z,38.95
2019-05-10T16:00:43.898Z,40.79
2019-05-10T16:05:59.846Z,41.17
2019-05-10T16:10:52.234Z,41.52
2019-05-10T16:15:57.834Z,41.83
2019-05-10T16:21:00.565Z,42.24
2019-05-10T16:26:03.870Z,42.09
2019-05-10T16:31:07.178Z,42.62
2019-05-10T16:36:10.544Z,41.57
2019-05-10T16:41:13.854Z,41.84
2019-05-10T16:46:17.178Z,40.48
2019-05-10T16:51:20.459Z,40.82
2019-05-10T16:56:23.758Z,41.27
2019-05-10T17:01:27.772Z,41.75
2019-05-10T17:06:35.450Z,42.02
2019-05-10T17:11:36.361Z,42.33
2019-05-10T17:16:39.648Z,42.00
2019-05-10T17:21:42.966Z,41.71
2019-05-10T17:26:46.271Z,41.81
2019-05-10T17:31:49.578Z,42.00
2019-05-10T17:36:57.926Z,42.20
2019-05-10T17:42:02.970Z,42.53
2019-05-10T17:47:02.987Z,43.59
2019-05-10T17:52:06.296Z,43.51
2019-05-10T17:57:10.645Z,43.91
2019-05-10T18:02:14.625Z,44.78
2019-05-10T18:07:18.013Z,44.73
2019-05-10T18:12:26.575Z,44.93
2019-05-10T18:17:27.627Z,44.87
2019-05-10T18:22:42.250Z,45.47
2019-05-10T18:27:36.036Z,46.01
2019-05-10T18:32:39.304Z,46.17
2019-05-10T18:37:42.737Z,46.81
2019-05-10T18:42:46.049Z,47.66
2019-05-10T18:47:49.363Z,48.25
2019-05-10T18:52:52.692Z,47.97
2019-05-10T18:57:55.995Z,48.28
2019-05-10T19:02:59.288Z,49.46
2019-05-10T19:08:05.633Z,49.93
2019-05-10T19:13:08.073Z,53.03
2019-05-10T19:18:11.529Z,51.31
2019-05-10T19:23:19.528Z,50.96
2019-05-10T19:28:21.068Z,51.19
2019-05-10T19:33:29.775Z,52.42
2019-05-10T19:38:29.937Z,52.92
2019-05-10T19:43:33.234Z,53.82
2019-05-10T19:48:37.019Z,53.08
2019-05-10T19:53:42.545Z,56.41
2019-05-10T19:58:48.911Z,55.95
2019-05-10T20:03:50.427Z,58.19
2019-05-10T20:08:53.743Z,61.42
2019-05-10T20:13:57.050Z,59.64
2019-05-10T20:19:00.389Z,60.43
2019-05-10T20:24:03.683Z,58.40
2019-05-10T20:29:06.979Z,60.32
2019-05-10T20:34:10.278Z,60.04
2019-05-10T20:39:13.570Z,61.57
2019-05-10T20:44:18.260Z,63.09
2019-05-10T20:49:21.698Z,62.59
2019-05-10T20:54:24.933Z,63.93
2019-05-10T20:59:28.271Z,63.62
2019-05-10T21:04:31.566Z,60.68
2019-05-10T21:09:34.861Z,60.82
2019-05-10T21:14:38.152Z,60.79
2019-05-10T21:19:41.471Z,60.89
2019-05-10T21:24:44.759Z,62.01
2019-05-10T21:29:48.090Z,63.58
2019-05-10T21:34:51.382Z,63.61
2019-05-10T21:39:54.650Z,64.19
2019-05-10T21:44:57.944Z,64.62
2019-05-10T21:50:01.262Z,65.02
2019-05-10T21:55:04.938Z,65.47
2019-05-10T22:00:08.918Z,66.43
2019-05-10T22:05:12.539Z,66.51
2019-05-10T22:10:16.053Z,65.41
2019-05-10T22:15:19.433Z,66.03
2019-05-10T22:20:22.784Z,66.16
2019-05-10T22:25:26.110Z,66.08
2019-05-10T22:30:29.446Z,67.64
2019-05-10T22:35:32.815Z,66.11
2019-05-10T22:40:36.156Z,66.38
2019-05-10T22:45:39.496Z,66.83
2019-05-10T22:50:42.891Z,66.89
2019-05-10T22:55:46.217Z,67.77
2019-05-10T23:00:49.539Z,68.00
2019-05-10T23:05:52.866Z,67.96
2019-05-10T23:10:56.195Z,67.65
2019-05-10T23:16:33.802Z,67.61
2019-05-10T23:21:37.062Z,67.43
2019-05-10T23:26:40.395Z,66.91
2019-05-10T23:31:43.738Z,67.28
2019-05-10T23:36:47.073Z,66.36
2019-05-10T23:41:50.403Z,66.84
2019-05-10T23:46:53.813Z,67.62
2019-05-10T23:51:57.195Z,67.56
2019-05-10T23:57:00.712Z,67.85
